createdAt,value
2022-08-24T00:00:11.818Z,18.09
2022-08-24T00:00:43.416Z,18.05
2022-08-24T00:01:16.505Z,18.02
2022-08-24T00:01:48.159Z,17.99
2022-08-24T00:02:19.868Z,17.99
2022-08-24T00:02:51.808Z,18.00
2022-08-24T00:03:24.195Z,18.03
2022-08-24T00:04:02.656Z,18.00
2022-08-24T00:04:35.543Z,18.05
2022-08-24T00:05:12.691Z,18.05
2022-08-24T00:05:47.322Z,18.03
2022-08-24T00:06:22.000Z,18.06
2022-08-24T00:06:53.569Z,18.05
2022-08-24T00:07:27.952Z,18.03
2022-08-24T00:07:59.754Z,18.03
2022-08-24T00:08:31.490Z,18.05
2022-08-24T00:09:03.883Z,17.97
2022-08-24T00:09:36.482Z,17.99
2022-08-24T00:10:10.766Z,17.99
2022-08-24T00:10:42.638Z,18.00
2022-08-24T00:11:14.881Z,17.99
2022-08-24T00:11:47.613Z,18.00
2022-08-24T00:12:20.176Z,17.96
2022-08-24T00:12:52.278Z,17.96
2022-08-24T00:13:23.845Z,17.96
2022-08-24T00:14:00.384Z,17.97
2022-08-24T00:14:32.498Z,17.96
2022-08-24T00:15:06.400Z,17.93
2022-08-24T00:15:38.414Z,17.95
2022-08-24T00:16:10.602Z,17.97
2022-08-24T00:16:42.659Z,17.99
2022-08-24T00:17:14.345Z,17.97
2022-08-24T00:17:45.902Z,17.97
2022-08-24T00:18:17.927Z,17.93
2022-08-24T00:18:50.178Z,17.99
2022-08-24T00:19:21.725Z,17.99
2022-08-24T00:19:54.354Z,17.95
2022-08-24T00:20:26.678Z,17.99
2022-08-24T00:20:58.246Z,18.00
2022-08-24T00:21:30.110Z,18.03
2022-08-24T00:22:01.977Z,18.05
2022-08-24T00:22:33.524Z,18.00
2022-08-24T00:23:06.105Z,17.97
2022-08-24T00:23:37.685Z,17.99
2022-08-24T00:24:09.750Z,18.02
2022-08-24T00:24:41.408Z,18.02
2022-08-24T00:25:14.164Z,18.02
2022-08-24T00:25:46.653Z,17.99
2022-08-24T00:26:29.111Z,17.96
2022-08-24T00:27:00.986Z,17.96
2022-08-24T00:27:32.617Z,17.97
2022-08-24T00:28:05.580Z,17.99
2022-08-24T00:28:37.552Z,17.99
2022-08-24T00:29:09.702Z,17.97
2022-08-24T00:29:41.364Z,17.96
2022-08-24T00:30:16.525Z,17.99
2022-08-24T00:30:48.243Z,17.93
2022-08-24T00:31:19.922Z,17.93
2022-08-24T00:31:51.645Z,17.96
2022-08-24T00:32:23.296Z,17.96
2022-08-24T00:32:54.883Z,17.93
2022-08-24T00:33:26.985Z,17.95
2022-08-24T00:33:59.459Z,17.99
2022-08-24T00:34:31.880Z,18.00
2022-08-24T00:35:08.436Z,17.95
2022-08-24T00:35:40.329Z,17.93
2022-08-24T00:36:11.986Z,17.90
2022-08-24T00:36:44.115Z,17.90
2022-08-24T00:37:15.674Z,17.95
2022-08-24T00:37:49.362Z,17.92
2022-08-24T00:38:21.056Z,17.95
2022-08-24T00:38:53.685Z,17.96
2022-08-24T00:39:25.302Z,17.95
2022-08-24T00:39:57.703Z,17.96
2022-08-24T00:40:35.938Z,17.92
2022-08-24T00:41:07.614Z,17.95
2022-08-24T00:41:45.564Z,17.92
2022-08-24T00:42:17.428Z,17.89
2022-08-24T00:42:50.691Z,17.90
2022-08-24T00:43:25.734Z,17.93
2022-08-24T00:44:03.683Z,17.93
2022-08-24T00:44:35.473Z,17.90
2022-08-24T00:45:10.518Z,17.93
2022-08-24T00:45:46.456Z,17.96
2022-08-24T00:46:43.636Z,17.97
2022-08-24T00:47:24.021Z,17.90
2022-08-24T00:48:01.886Z,17.89
2022-08-24T00:48:38.687Z,17.90
2022-08-24T00:49:18.420Z,17.85
2022-08-24T00:49:56.624Z,17.89
2022-08-24T00:50:36.954Z,17.85
2022-08-24T00:51:27.564Z,17.92
2022-08-24T00:52:21.236Z,17.89
2022-08-24T00:52:58.059Z,17.88
2022-08-24T00:53:37.580Z,17.90
2022-08-24T00:54:13.170Z,17.93
2022-08-24T00:54:50.964Z,17.96
2022-08-24T00:55:45.624Z,17.95
2022-08-24T00:56:27.896Z,17.92
2022-08-24T00:57:02.816Z,17.89
2022-08-24T00:57:39.975Z,17.93
2022-08-24T00:58:28.130Z,17.93
2022-08-24T00:59:05.226Z,17.88
2022-08-24T00:59:42.500Z,17.86
2022-08-24T01:00:23.244Z,17.88
2022-08-24T01:00:58.322Z,17.92
2022-08-24T01:01:33.497Z,17.93
2022-08-24T01:02:10.761Z,17.88
2022-08-24T01:02:51.195Z,17.88
2022-08-24T01:03:23.401Z,17.90
2022-08-24T01:03:57.541Z,17.89
2022-08-24T01:04:37.079Z,17.85
2022-08-24T01:05:10.152Z,17.88
2022-08-24T01:05:41.896Z,17.89
2022-08-24T01:06:14.349Z,17.85
2022-08-24T01:06:47.377Z,17.89
2022-08-24T01:07:22.752Z,17.89
2022-08-24T01:07:54.302Z,17.86
2022-08-24T01:08:26.298Z,17.85
2022-08-24T01:08:57.863Z,17.85
2022-08-24T01:09:30.359Z,17.88
2022-08-24T01:10:07.782Z,17.89
2022-08-24T01:10:47.952Z,17.83
2022-08-24T01:11:24.583Z,17.81
2022-08-24T01:11:56.698Z,17.81
2022-08-24T01:12:30.914Z,17.83
2022-08-24T01:13:06.870Z,17.82
2022-08-24T01:13:39.839Z,17.79
2022-08-24T01:14:11.449Z,17.82
2022-08-24T01:14:43.786Z,17.82
2022-08-24T01:15:16.790Z,17.81
2022-08-24T01:15:52.633Z,17.83
2022-08-24T01:16:43.118Z,17.81
2022-08-24T01:17:38.675Z,17.78
2022-08-24T01:18:34.692Z,17.79
2022-08-24T01:19:30.544Z,17.78
2022-08-24T01:20:06.154Z,17.82
2022-08-24T01:20:37.876Z,17.78
2022-08-24T01:21:54.392Z,17.88
2022-08-24T01:22:43.822Z,17.88
2022-08-24T01:23:52.422Z,17.89
2022-08-24T01:24:23.993Z,17.88
2022-08-24T01:24:55.636Z,17.83
2022-08-24T01:25:30.140Z,17.83
2022-08-24T01:26:02.267Z,17.85
2022-08-24T01:26:39.932Z,17.85
2022-08-24T01:27:12.071Z,17.85
2022-08-24T01:27:45.068Z,17.90
2022-08-24T01:28:27.401Z,17.88
2022-08-24T01:29:06.956Z,17.86
2022-08-24T01:29:42.257Z,17.90
2022-08-24T01:30:17.466Z,17.89
2022-08-24T01:30:49.037Z,17.90
2022-08-24T01:31:22.895Z,17.90
2022-08-24T01:31:54.708Z,17.90
2022-08-24T01:32:30.049Z,17.86
2022-08-24T01:33:05.955Z,17.92
2022-08-24T01:33:38.236Z,17.92
2022-08-24T01:34:11.174Z,17.95
2022-08-24T01:34:43.526Z,17.99
2022-08-24T01:35:15.092Z,17.97
2022-08-24T01:35:46.918Z,17.96
2022-08-24T01:36:32.119Z,17.99
2022-08-24T01:37:03.943Z,17.97
2022-08-24T01:37:36.254Z,17.96
2022-08-24T01:38:11.579Z,17.95
2022-08-24T01:38:43.318Z,17.96
2022-08-24T01:39:37.280Z,18.02
2022-08-24T01:40:09.341Z,18.02
2022-08-24T01:40:46.558Z,18.00
2022-08-24T01:41:18.140Z,18.00
2022-08-24T01:41:50.893Z,17.99
2022-08-24T01:42:22.762Z,17.99
2022-08-24T01:42:54.378Z,18.00
2022-08-24T01:43:25.949Z,18.06
2022-08-24T01:43:59.865Z,18.05
2022-08-24T01:44:34.592Z,18.02
2022-08-24T01:45:07.061Z,18.06
2022-08-24T01:45:39.068Z,18.09
2022-08-24T01:46:10.802Z,18.07
2022-08-24T01:46:50.612Z,18.10
2022-08-24T01:47:22.282Z,18.12
2022-08-24T01:47:54.074Z,18.14
2022-08-24T01:48:25.864Z,18.10
2022-08-24T01:48:58.231Z,18.13
2022-08-24T01:49:32.284Z,18.16
2022-08-24T01:50:04.925Z,18.14
2022-08-24T01:50:36.606Z,18.17
2022-08-24T01:51:08.247Z,18.12
2022-08-24T01:51:39.820Z,18.09
2022-08-24T01:52:15.324Z,18.13
2022-08-24T01:53:04.321Z,18.10
2022-08-24T01:53:36.851Z,18.09
2022-08-24T01:54:09.003Z,18.12
2022-08-24T01:54:43.594Z,18.12
2022-08-24T01:55:22.451Z,18.10
2022-08-24T01:55:54.447Z,18.13
2022-08-24T01:56:26.027Z,18.18
2022-08-24T01:57:01.831Z,18.16
2022-08-24T01:57:33.407Z,18.16
2022-08-24T01:58:05.526Z,18.17
2022-08-24T01:58:43.850Z,18.17
2022-08-24T01:59:15.810Z,18.20
2022-08-24T01:59:47.407Z,18.14
2022-08-24T02:01:05.790Z,18.20
2022-08-24T02:01:41.429Z,18.17
2022-08-24T02:02:28.444Z,18.20
2022-08-24T02:03:00.179Z,18.20
2022-08-24T02:03:31.844Z,18.18
2022-08-24T02:04:05.819Z,18.23
2022-08-24T02:04:41.198Z,18.23
2022-08-24T02:05:17.898Z,18.23
2022-08-24T02:05:49.483Z,18.23
2022-08-24T02:06:21.160Z,18.26
2022-08-24T02:06:54.009Z,18.24
2022-08-24T02:07:26.193Z,18.23
2022-08-24T02:07:58.270Z,18.23
2022-08-24T02:08:29.860Z,18.24
2022-08-24T02:09:01.476Z,18.26
2022-08-24T02:09:33.099Z,18.26
2022-08-24T02:10:07.192Z,18.23
2022-08-24T02:10:38.762Z,18.23
2022-08-24T02:11:10.504Z,18.24
2022-08-24T02:11:42.746Z,18.23
2022-08-24T02:12:15.414Z,18.27
2022-08-24T02:12:57.815Z,18.26
2022-08-24T02:13:31.180Z,18.26
2022-08-24T02:14:03.681Z,18.27
2022-08-24T02:14:37.683Z,18.27
2022-08-24T02:15:10.787Z,18.29
2022-08-24T02:15:42.726Z,18.27
2022-08-24T02:16:15.038Z,18.29
2022-08-24T02:16:46.974Z,18.29
2022-08-24T02:17:19.091Z,18.27
2022-08-24T02:17:50.659Z,18.22
2022-08-24T02:18:22.254Z,18.23
2022-08-24T02:18:53.884Z,18.27
2022-08-24T02:19:27.275Z,18.26
2022-08-24T02:19:58.922Z,18.27
2022-08-24T02:20:30.771Z,18.26
2022-08-24T02:21:02.721Z,18.20
2022-08-24T02:21:34.328Z,18.22
2022-08-24T02:22:06.200Z,18.20
2022-08-24T02:22:37.758Z,18.22
2022-08-24T02:23:09.450Z,18.23
2022-08-24T02:23:42.454Z,18.24
2022-08-24T02:24:14.068Z,18.24
2022-08-24T02:24:45.935Z,18.24
2022-08-24T02:25:18.018Z,18.23
2022-08-24T02:25:49.819Z,18.22
2022-08-24T02:26:21.711Z,18.29
2022-08-24T02:26:53.862Z,18.27
2022-08-24T02:27:25.476Z,18.30
2022-08-24T02:27:59.562Z,18.30
2022-08-24T02:28:31.169Z,18.26
2022-08-24T02:29:03.557Z,18.27
2022-08-24T02:29:35.880Z,18.27
2022-08-24T02:30:08.344Z,18.29
2022-08-24T02:30:40.853Z,18.24
2022-08-24T02:31:13.849Z,18.29
2022-08-24T02:31:45.452Z,18.30
2022-08-24T02:32:17.028Z,18.26
2022-08-24T02:32:48.836Z,18.27
2022-08-24T02:33:20.421Z,18.24
2022-08-24T02:33:52.023Z,18.29
2022-08-24T02:34:24.127Z,18.29
2022-08-24T02:34:55.734Z,18.33
2022-08-24T02:35:30.135Z,18.33
2022-08-24T02:36:02.394Z,18.34
2022-08-24T02:36:35.622Z,18.34
2022-08-24T02:37:07.269Z,18.34
2022-08-24T02:37:43.600Z,18.40
2022-08-24T02:38:15.497Z,18.37
2022-08-24T02:38:47.098Z,18.38
2022-08-24T02:39:18.670Z,18.40
2022-08-24T02:39:50.414Z,18.38
2022-08-24T02:40:22.596Z,18.34
2022-08-24T02:40:54.306Z,18.43
2022-08-24T02:41:26.011Z,18.41
2022-08-24T02:41:57.905Z,18.36
2022-08-24T02:42:29.580Z,18.32
2022-08-24T02:43:01.388Z,18.34
2022-08-24T02:43:33.922Z,18.34
2022-08-24T02:44:10.205Z,18.37
2022-08-24T02:44:41.799Z,18.38
2022-08-24T02:45:13.796Z,18.36
2022-08-24T02:45:50.222Z,18.38
2022-08-24T02:46:25.715Z,18.40
2022-08-24T02:46:57.510Z,18.44
2022-08-24T02:47:38.263Z,18.37
2022-08-24T02:48:11.525Z,18.34
2022-08-24T02:48:43.187Z,18.37
2022-08-24T02:49:15.611Z,18.36
2022-08-24T02:49:48.809Z,18.40
2022-08-24T02:50:20.544Z,18.34
2022-08-24T02:50:53.565Z,18.36
2022-08-24T02:51:28.400Z,18.36
2022-08-24T02:52:01.591Z,18.36
2022-08-24T02:52:33.218Z,18.33
2022-08-24T02:53:05.004Z,18.36
2022-08-24T02:53:36.895Z,18.34
2022-08-24T02:54:09.456Z,18.38
2022-08-24T02:54:41.985Z,18.37
2022-08-24T02:55:19.904Z,18.38
2022-08-24T02:55:52.681Z,18.34
2022-08-24T02:56:26.004Z,18.40
2022-08-24T02:56:57.563Z,18.37
2022-08-24T02:57:29.133Z,18.37
2022-08-24T02:58:00.981Z,18.38
2022-08-24T02:58:33.843Z,18.34
2022-08-24T02:59:05.712Z,18.38
2022-08-24T02:59:37.395Z,18.38
2022-08-24T03:00:13.320Z,18.40
2022-08-24T03:00:47.468Z,18.36
2022-08-24T03:01:23.982Z,18.36
2022-08-24T03:02:02.117Z,18.34
2022-08-24T03:02:33.803Z,18.34
2022-08-24T03:03:06.983Z,18.36
2022-08-24T03:03:39.410Z,18.38
2022-08-24T03:04:11.684Z,18.40
2022-08-24T03:04:43.284Z,18.37
2022-08-24T03:05:21.819Z,18.34
2022-08-24T03:05:53.438Z,18.37
2022-08-24T03:06:25.746Z,18.36
2022-08-24T03:06:57.430Z,18.38
2022-08-24T03:07:29.006Z,18.38
2022-08-24T03:08:02.060Z,18.38
2022-08-24T03:08:36.786Z,18.37
2022-08-24T03:09:08.876Z,18.36
2022-08-24T03:09:40.470Z,18.43
2022-08-24T03:10:13.134Z,18.43
2022-08-24T03:10:44.970Z,18.40
2022-08-24T03:11:16.770Z,18.40
2022-08-24T03:11:48.336Z,18.40
2022-08-24T03:12:20.244Z,18.37
2022-08-24T03:12:52.954Z,18.37
2022-08-24T03:13:28.858Z,18.41
2022-08-24T03:14:00.602Z,18.36
2022-08-24T03:14:32.200Z,18.38
2022-08-24T03:15:06.763Z,18.38
2022-08-24T03:15:38.598Z,18.38
2022-08-24T03:16:10.330Z,18.43
2022-08-24T03:16:42.108Z,18.43
2022-08-24T03:17:13.838Z,18.46
2022-08-24T03:17:45.408Z,18.40
2022-08-24T03:18:16.983Z,18.41
2022-08-24T03:18:48.588Z,18.40
2022-08-24T03:19:20.357Z,18.41
2022-08-24T03:19:51.944Z,18.44
2022-08-24T03:20:24.674Z,18.43
2022-08-24T03:20:57.976Z,18.37
2022-08-24T03:21:29.580Z,18.41
2022-08-24T03:22:01.204Z,18.41
2022-08-24T03:22:33.196Z,18.38
2022-08-24T03:23:05.394Z,18.38
2022-08-24T03:23:37.318Z,18.38
2022-08-24T03:24:09.404Z,18.40
2022-08-24T03:24:41.104Z,18.40
2022-08-24T03:25:14.570Z,18.40
2022-08-24T03:25:46.206Z,18.40
2022-08-24T03:26:17.886Z,18.44
2022-08-24T03:26:50.278Z,18.43
2022-08-24T03:27:21.898Z,18.40
2022-08-24T03:27:54.352Z,18.43
2022-08-24T03:28:26.709Z,18.36
2022-08-24T03:28:59.098Z,18.38
2022-08-24T03:29:33.663Z,18.40
2022-08-24T03:30:07.398Z,18.37
2022-08-24T03:30:40.701Z,18.40
2022-08-24T03:31:13.848Z,18.41
2022-08-24T03:31:45.554Z,18.41
2022-08-24T03:32:17.858Z,18.43
2022-08-24T03:32:50.196Z,18.41
2022-08-24T03:33:21.808Z,18.46
2022-08-24T03:33:53.410Z,18.41
2022-08-24T03:34:24.998Z,18.48
2022-08-24T03:34:56.633Z,18.46
2022-08-24T03:35:28.594Z,18.44
2022-08-24T03:36:00.695Z,18.44
2022-08-24T03:36:32.838Z,18.41
2022-08-24T03:37:04.922Z,18.41
2022-08-24T03:37:37.494Z,18.44
2022-08-24T03:38:09.686Z,18.43
2022-08-24T03:38:41.772Z,18.43
2022-08-24T03:39:15.358Z,18.44
2022-08-24T03:39:48.131Z,18.40
2022-08-24T03:40:23.070Z,18.40
2022-08-24T03:40:56.451Z,18.44
2022-08-24T03:41:28.176Z,18.46
2022-08-24T03:42:01.068Z,18.44
2022-08-24T03:42:32.802Z,18.44
2022-08-24T03:43:04.539Z,18.47
2022-08-24T03:43:48.659Z,18.44
2022-08-24T03:44:23.181Z,18.43
2022-08-24T03:44:55.126Z,18.47
2022-08-24T03:45:27.387Z,18.47
2022-08-24T03:46:01.903Z,18.43
2022-08-24T03:46:37.042Z,18.44
2022-08-24T03:47:10.642Z,18.46
2022-08-24T03:47:42.308Z,18.43
2022-08-24T03:48:15.926Z,18.40
2022-08-24T03:48:49.307Z,18.41
2022-08-24T03:49:21.437Z,18.40
2022-08-24T03:49:53.522Z,18.40
2022-08-24T03:50:25.814Z,18.43
2022-08-24T03:50:57.560Z,18.43
2022-08-24T03:51:30.259Z,18.43
2022-08-24T03:52:02.076Z,18.48
2022-08-24T03:52:35.479Z,18.46
2022-08-24T03:53:07.333Z,18.50
2022-08-24T03:53:43.049Z,18.51
2022-08-24T03:54:15.996Z,18.50
2022-08-24T03:54:48.468Z,18.48
2022-08-24T03:55:20.539Z,18.50
2022-08-24T03:55:52.324Z,18.50
2022-08-24T03:56:24.136Z,18.50
2022-08-24T03:56:55.744Z,18.50
2022-08-24T03:57:27.399Z,18.51
2022-08-24T03:57:59.887Z,18.58
2022-08-24T03:58:31.479Z,18.60
2022-08-24T03:59:03.811Z,18.61
2022-08-24T03:59:37.682Z,18.61
2022-08-24T04:00:18.086Z,18.58
2022-08-24T04:00:50.085Z,18.57
2022-08-24T04:01:22.000Z,18.58
2022-08-24T04:01:56.117Z,18.58
2022-08-24T04:02:32.444Z,18.58
2022-08-24T04:03:04.776Z,18.61
2022-08-24T04:03:41.606Z,18.61
2022-08-24T04:04:13.186Z,18.61
2022-08-24T04:04:44.783Z,18.60
2022-08-24T04:05:17.044Z,18.61
2022-08-24T04:05:48.601Z,18.57
2022-08-24T04:06:22.384Z,18.58
2022-08-24T04:06:53.982Z,18.60
2022-08-24T04:07:25.654Z,18.63
2022-08-24T04:07:57.246Z,18.61
2022-08-24T04:08:28.817Z,18.64
2022-08-24T04:09:00.586Z,18.68
2022-08-24T04:09:32.455Z,18.69
2022-08-24T04:10:04.278Z,18.64
2022-08-24T04:10:36.386Z,18.65
2022-08-24T04:11:15.378Z,18.64
2022-08-24T04:11:47.101Z,18.67
2022-08-24T04:12:20.291Z,18.67
2022-08-24T04:12:55.059Z,18.67
2022-08-24T04:13:27.016Z,18.72
2022-08-24T04:13:59.222Z,18.75
2022-08-24T04:14:30.828Z,18.75
2022-08-24T04:15:02.553Z,18.74
2022-08-24T04:15:39.025Z,18.74
2022-08-24T04:16:16.697Z,18.78
2022-08-24T04:16:53.524Z,18.81
2022-08-24T04:17:30.339Z,18.72
2022-08-24T04:18:01.936Z,18.72
2022-08-24T04:18:33.578Z,18.79
2022-08-24T04:19:05.551Z,18.75
2022-08-24T04:19:37.112Z,18.69
2022-08-24T04:20:09.358Z,18.74
2022-08-24T04:20:42.551Z,18.75
2022-08-24T04:21:24.773Z,18.78
2022-08-24T04:21:58.636Z,18.76
2022-08-24T04:22:34.161Z,18.71
2022-08-24T04:23:07.310Z,18.69
2022-08-24T04:23:41.254Z,18.71
2022-08-24T04:24:20.444Z,18.71
2022-08-24T04:24:52.066Z,18.63
2022-08-24T04:25:25.272Z,18.68
2022-08-24T04:26:04.057Z,18.69
2022-08-24T04:26:45.765Z,18.67
2022-08-24T04:27:18.046Z,18.60
2022-08-24T04:27:49.771Z,18.71
2022-08-24T04:28:22.889Z,18.68
2022-08-24T04:28:54.879Z,18.69
2022-08-24T04:29:26.498Z,18.75
2022-08-24T04:29:58.322Z,18.75
2022-08-24T04:30:29.932Z,18.74
2022-08-24T04:31:05.414Z,18.75
2022-08-24T04:31:38.516Z,18.74
2022-08-24T04:32:10.342Z,18.74
2022-08-24T04:32:42.617Z,18.71
2022-08-24T04:33:14.552Z,18.69
2022-08-24T04:33:47.998Z,18.69
2022-08-24T04:34:25.547Z,18.74
2022-08-24T04:34:59.160Z,18.78
2022-08-24T04:35:30.836Z,18.76
2022-08-24T04:36:06.230Z,18.68
2022-08-24T04:36:40.477Z,18.69
2022-08-24T04:37:12.805Z,18.72
2022-08-24T04:37:44.384Z,18.75
2022-08-24T04:38:19.034Z,18.72
2022-08-24T04:38:50.927Z,18.72
2022-08-24T04:39:22.512Z,18.76
2022-08-24T04:39:55.321Z,18.81
2022-08-24T04:40:27.015Z,18.76
2022-08-24T04:41:00.267Z,18.76
2022-08-24T04:41:32.099Z,18.75
2022-08-24T04:42:04.133Z,18.76
2022-08-24T04:42:37.417Z,18.74
2022-08-24T04:43:09.386Z,18.72
2022-08-24T04:43:45.309Z,18.74
2022-08-24T04:44:19.058Z,18.76
2022-08-24T04:44:50.835Z,18.79
2022-08-24T04:45:22.496Z,18.84
2022-08-24T04:45:54.140Z,18.84
2022-08-24T04:46:26.139Z,18.85
2022-08-24T04:46:58.156Z,18.84
2022-08-24T04:47:29.807Z,18.85
2022-08-24T04:48:01.508Z,18.81
2022-08-24T04:48:33.955Z,18.76
2022-08-24T04:49:05.537Z,18.76
2022-08-24T04:49:38.281Z,18.79
2022-08-24T04:50:10.047Z,18.72
2022-08-24T04:50:43.592Z,18.78
2022-08-24T04:51:21.040Z,18.76
2022-08-24T04:51:52.605Z,18.79
2022-08-24T04:52:24.296Z,18.78
2022-08-24T04:52:55.861Z,18.74
2022-08-24T04:53:27.409Z,18.72
2022-08-24T04:53:59.013Z,18.72
2022-08-24T04:54:32.238Z,18.75
2022-08-24T04:55:04.139Z,18.76
2022-08-24T04:55:49.168Z,18.81
2022-08-24T04:56:23.975Z,18.88
2022-08-24T04:56:55.579Z,18.84
2022-08-24T04:57:27.234Z,18.79
2022-08-24T04:57:58.997Z,18.83
2022-08-24T04:58:31.229Z,18.85
2022-08-24T04:59:04.788Z,18.87
2022-08-24T04:59:36.373Z,18.87
2022-08-24T05:00:10.300Z,18.84
2022-08-24T05:00:42.884Z,18.87
2022-08-24T05:01:19.439Z,18.91
2022-08-24T05:01:52.212Z,18.85
2022-08-24T05:02:24.604Z,18.89
2022-08-24T05:02:57.362Z,18.94
2022-08-24T05:03:28.986Z,19.01
2022-08-24T05:04:01.435Z,18.96
2022-08-24T05:04:33.037Z,19.04
2022-08-24T05:05:04.885Z,18.99
2022-08-24T05:05:41.585Z,18.91
2022-08-24T05:06:15.345Z,18.87
2022-08-24T05:06:46.936Z,18.91
2022-08-24T05:07:25.887Z,18.96
2022-08-24T05:07:57.483Z,18.98
2022-08-24T05:08:29.080Z,18.99
2022-08-24T05:09:01.569Z,19.04
2022-08-24T05:09:33.427Z,19.04
2022-08-24T05:10:08.865Z,18.98
2022-08-24T05:10:45.142Z,18.96
2022-08-24T05:11:18.094Z,19.05
2022-08-24T05:11:50.582Z,19.09
2022-08-24T05:12:22.171Z,19.04
2022-08-24T05:12:53.909Z,19.02
2022-08-24T05:13:26.416Z,18.98
2022-08-24T05:13:58.782Z,18.92
2022-08-24T05:14:30.817Z,18.89
2022-08-24T05:15:02.526Z,18.94
2022-08-24T05:15:35.964Z,18.94
2022-08-24T05:16:13.869Z,18.94
2022-08-24T05:16:45.784Z,18.92
2022-08-24T05:17:25.954Z,18.87
2022-08-24T05:17:57.526Z,18.91
2022-08-24T05:18:29.975Z,18.91
2022-08-24T05:19:02.814Z,18.85
2022-08-24T05:19:34.420Z,18.87
2022-08-24T05:20:06.408Z,18.88
2022-08-24T05:20:42.638Z,18.91
2022-08-24T05:21:18.266Z,18.91
2022-08-24T05:21:51.123Z,18.96
2022-08-24T05:22:22.744Z,18.92
2022-08-24T05:23:05.043Z,18.94
2022-08-24T05:23:38.453Z,18.96
2022-08-24T05:24:11.650Z,18.94
2022-08-24T05:24:43.290Z,18.91
2022-08-24T05:25:15.104Z,19.04
2022-08-24T05:25:46.701Z,19.60
2022-08-24T05:26:22.286Z,19.60
2022-08-24T05:26:54.006Z,20.20
2022-08-24T05:27:25.728Z,20.81
2022-08-24T05:27:58.234Z,20.55
2022-08-24T05:28:29.796Z,20.33
2022-08-24T05:29:02.670Z,19.94
2022-08-24T05:29:34.816Z,19.95
2022-08-24T05:30:07.047Z,19.81
2022-08-24T05:30:42.543Z,19.91
2022-08-24T05:31:16.174Z,19.77
2022-08-24T05:31:47.917Z,19.77
2022-08-24T05:32:19.937Z,20.07
2022-08-24T05:32:51.507Z,19.80
2022-08-24T05:33:23.065Z,19.91
2022-08-24T05:33:55.536Z,19.83
2022-08-24T05:34:27.409Z,19.88
2022-08-24T05:35:01.271Z,20.04
2022-08-24T05:35:38.679Z,19.83
2022-08-24T05:36:25.098Z,19.59
2022-08-24T05:36:56.740Z,19.84
2022-08-24T05:37:29.905Z,19.93
2022-08-24T05:38:01.497Z,20.07
2022-08-24T05:38:33.543Z,20.04
2022-08-24T05:39:11.333Z,20.08
2022-08-24T05:39:43.334Z,20.20
2022-08-24T05:40:17.920Z,20.14
2022-08-24T05:40:51.283Z,20.07
2022-08-24T05:41:23.861Z,19.98
2022-08-24T05:41:55.511Z,20.05
2022-08-24T05:42:27.160Z,20.12
2022-08-24T05:42:58.761Z,20.18
2022-08-24T05:43:30.326Z,20.25
2022-08-24T05:44:02.309Z,20.21
2022-08-24T05:44:38.385Z,19.98
2022-08-24T05:45:10.672Z,20.08
2022-08-24T05:45:43.389Z,20.07
2022-08-24T05:46:16.042Z,20.29
2022-08-24T05:46:47.780Z,20.28
2022-08-24T05:47:19.537Z,20.08
2022-08-24T05:47:51.245Z,20.33
2022-08-24T05:48:22.846Z,20.31
2022-08-24T05:48:54.969Z,20.21
2022-08-24T05:49:27.395Z,20.31
2022-08-24T05:49:58.989Z,20.18
2022-08-24T05:50:30.549Z,19.93
2022-08-24T05:51:02.779Z,20.11
2022-08-24T05:51:34.680Z,20.10
2022-08-24T05:52:06.334Z,19.87
2022-08-24T05:52:38.169Z,19.75
2022-08-24T05:53:09.821Z,19.84
2022-08-24T05:53:41.678Z,19.77
2022-08-24T05:54:13.832Z,19.88
2022-08-24T05:54:45.957Z,20.01
2022-08-24T05:55:17.638Z,19.90
2022-08-24T05:55:49.242Z,20.00
2022-08-24T05:56:21.066Z,20.05
2022-08-24T05:56:52.891Z,19.88
2022-08-24T05:57:26.384Z,19.90
2022-08-24T05:57:57.960Z,20.08
2022-08-24T05:58:31.196Z,19.94
2022-08-24T05:59:03.033Z,19.90
2022-08-24T05:59:35.131Z,19.93
2022-08-24T06:00:11.637Z,19.88
2022-08-24T06:00:45.802Z,19.90
2022-08-24T06:01:21.109Z,19.93
2022-08-24T06:01:53.507Z,19.88
2022-08-24T06:02:25.391Z,20.14
2022-08-24T06:02:57.065Z,20.20
2022-08-24T06:03:28.750Z,20.15
2022-08-24T06:04:01.190Z,20.18
2022-08-24T06:04:32.789Z,20.29
2022-08-24T06:05:04.781Z,20.21
2022-08-24T06:05:40.463Z,20.29
2022-08-24T06:06:13.496Z,20.38
2022-08-24T06:06:48.695Z,20.46
2022-08-24T06:07:20.601Z,20.26
2022-08-24T06:07:52.225Z,20.33
2022-08-24T06:08:23.852Z,20.22
2022-08-24T06:08:58.667Z,20.32
2022-08-24T06:09:30.355Z,20.35
2022-08-24T06:10:20.129Z,20.39
2022-08-24T06:10:53.498Z,20.75
2022-08-24T06:11:30.333Z,20.69
2022-08-24T06:12:02.617Z,21.07
2022-08-24T06:12:35.062Z,21.12
2022-08-24T06:13:07.527Z,21.20
2022-08-24T06:13:39.286Z,21.23
2022-08-24T06:14:15.632Z,21.28
2022-08-24T06:14:47.939Z,21.35
2022-08-24T06:15:19.698Z,21.31
2022-08-24T06:16:27.676Z,21.35
2022-08-24T06:16:59.394Z,21.39
2022-08-24T06:17:31.430Z,21.37
2022-08-24T06:18:04.640Z,21.47
2022-08-24T06:18:36.375Z,21.49
2022-08-24T06:19:09.857Z,21.49
2022-08-24T06:19:42.475Z,21.65
2022-08-24T06:20:14.210Z,21.65
2022-08-24T06:20:46.305Z,21.85
2022-08-24T06:21:23.563Z,21.59
2022-08-24T06:21:55.792Z,21.63
2022-08-24T06:22:27.366Z,21.61
2022-08-24T06:22:59.541Z,21.49
2022-08-24T06:23:31.163Z,21.35
2022-08-24T06:24:03.009Z,21.41
2022-08-24T06:24:55.275Z,21.21
2022-08-24T06:25:45.178Z,21.37
2022-08-24T06:26:36.042Z,21.39
2022-08-24T06:27:22.987Z,21.24
2022-08-24T06:27:54.606Z,21.18
2022-08-24T06:28:26.241Z,21.14
2022-08-24T06:28:58.387Z,21.04
2022-08-24T06:29:30.421Z,21.06
2022-08-24T06:30:06.526Z,21.30
2022-08-24T06:30:38.101Z,21.20
2022-08-24T06:31:09.973Z,21.32
2022-08-24T06:31:45.090Z,21.27
2022-08-24T06:32:18.539Z,21.32
2022-08-24T06:32:50.178Z,21.34
2022-08-24T06:33:22.106Z,21.37
2022-08-24T06:33:54.849Z,21.18
2022-08-24T06:34:26.424Z,21.03
2022-08-24T06:34:58.873Z,21.21
2022-08-24T06:35:30.479Z,21.24
2022-08-24T06:36:02.358Z,21.21
2022-08-24T06:36:35.213Z,21.31
2022-08-24T06:37:06.785Z,21.28
2022-08-24T06:37:38.360Z,21.39
2022-08-24T06:38:10.098Z,21.49
2022-08-24T06:38:45.442Z,21.48
2022-08-24T06:39:18.674Z,21.42
2022-08-24T06:39:55.062Z,21.42
2022-08-24T06:40:28.689Z,21.58
2022-08-24T06:41:00.402Z,21.34
2022-08-24T06:41:32.477Z,21.37
2022-08-24T06:42:05.165Z,21.39
2022-08-24T06:42:36.817Z,21.39
2022-08-24T06:43:08.416Z,21.30
2022-08-24T06:43:39.986Z,21.41
2022-08-24T06:44:11.740Z,21.45
2022-08-24T06:44:44.154Z,21.30
2022-08-24T06:45:15.796Z,21.21
2022-08-24T06:45:47.618Z,21.28
2022-08-24T06:46:24.059Z,21.21
2022-08-24T06:46:56.693Z,21.30
2022-08-24T06:47:28.447Z,21.23
2022-08-24T06:48:00.127Z,21.38
2022-08-24T06:48:32.499Z,21.31
2022-08-24T06:49:04.440Z,21.24
2022-08-24T06:49:37.282Z,21.21
2022-08-24T06:50:09.644Z,21.32
2022-08-24T06:50:41.313Z,21.32
2022-08-24T06:51:15.738Z,21.32
2022-08-24T06:51:50.616Z,21.34
2022-08-24T06:52:22.626Z,21.41
2022-08-24T06:52:54.392Z,21.44
2022-08-24T06:53:26.564Z,21.48
2022-08-24T06:53:58.733Z,21.52
2022-08-24T06:54:30.330Z,21.69
2022-08-24T06:55:02.582Z,21.83
2022-08-24T06:55:34.961Z,21.85
2022-08-24T06:56:07.488Z,21.95
2022-08-24T06:56:39.146Z,22.07
2022-08-24T06:57:10.750Z,22.21
2022-08-24T06:57:42.920Z,22.12
2022-08-24T06:58:14.604Z,22.17
2022-08-24T06:58:46.212Z,22.13
2022-08-24T06:59:19.050Z,22.23
2022-08-24T06:59:50.662Z,22.13
2022-08-24T07:00:23.220Z,22.26
2022-08-24T07:00:56.524Z,22.29
2022-08-24T07:01:28.419Z,22.19
2022-08-24T07:02:00.995Z,22.32
2022-08-24T07:02:33.706Z,22.36
2022-08-24T07:03:05.518Z,22.39
2022-08-24T07:03:37.823Z,22.44
2022-08-24T07:04:09.824Z,22.50
2022-08-24T07:04:42.396Z,22.46
2022-08-24T07:05:14.202Z,22.67
2022-08-24T07:05:57.823Z,22.72
2022-08-24T07:06:29.647Z,22.65
2022-08-24T07:07:01.214Z,22.61
2022-08-24T07:07:32.793Z,22.54
2022-08-24T07:08:05.501Z,22.72
2022-08-24T07:08:37.262Z,22.91
2022-08-24T07:09:08.880Z,22.91
2022-08-24T07:09:40.725Z,22.94
2022-08-24T07:10:12.344Z,23.04
2022-08-24T07:10:43.959Z,22.98
2022-08-24T07:11:18.124Z,22.99
2022-08-24T07:11:50.482Z,22.91
2022-08-24T07:12:23.031Z,22.90
2022-08-24T07:12:54.729Z,22.75
2022-08-24T07:13:26.430Z,22.68
2022-08-24T07:13:58.643Z,22.51
2022-08-24T07:14:30.527Z,22.43